Terminal Aerodrome Forecast
Issued by NWS

Home | Current Version | Previous Version | Text Only | Print | Product List | Glossary On
Versions: 1 2 3 4 5 6 7 8 9 10 11 12 13 14 15
000
FTAK31 PAJN 240500
TAFAYA
TAF
PAYA 240528Z 2406/2506 09005KT P6SM VCSH SCT035 BKN050
     FM241500 VRB03KT P6SM VCSH BKN060
      AMD LTD TO CLD VIS AND WIND 2406/2410=

USA.gov is the U.S. government's official web portal to all federal, state and local government web resources and services.